sensor_id;sensor_type;location;lat;lon;timestamp;pressure;altitude;pressure_sealevel;temperature
76007;BMP280;64699;0.000;0.000;2023-03-20T00:02:06;100523.94;;;17.96
76007;BMP280;64699;0.000;0.000;2023-03-20T00:04:31;100515.69;;;17.96
76007;BMP280;64699;0.000;0.000;2023-03-20T00:06:57;100514.72;;;17.94
76007;BMP280;64699;0.000;0.000;2023-03-20T00:09:22;100511.53;;;17.90
76007;BMP280;64699;0.000;0.000;2023-03-20T00:11:49;100512.78;;;17.89
76007;BMP280;64699;0.000;0.000;2023-03-20T00:14:16;100510.03;;;17.89
76007;BMP280;64699;0.000;0.000;2023-03-20T00:16:43;100509.59;;;17.85
76007;BMP280;64699;0.000;0.000;2023-03-20T00:19:16;100517.78;;;17.90
76007;BMP280;64699;0.000;0.000;2023-03-20T00:21:42;100505.53;;;17.91
76007;BMP280;64699;0.000;0.000;2023-03-20T00:24:07;100505.00;;;17.93
76007;BMP280;64699;0.000;0.000;2023-03-20T00:26:33;100511.84;;;17.86
76007;BMP280;64699;0.000;0.000;2023-03-20T00:28:59;100503.09;;;17.88
76007;BMP280;64699;0.000;0.000;2023-03-20T00:33:54;100509.53;;;17.90
76007;BMP280;64699;0.000;0.000;2023-03-20T00:36:20;100507.97;;;17.95
76007;BMP280;64699;0.000;0.000;2023-03-20T00:38:45;100506.47;;;17.94
76007;BMP280;64699;0.000;0.000;2023-03-20T00:41:27;100508.69;;;17.95
76007;BMP280;64699;0.000;0.000;2023-03-20T00:44:47;100508.38;;;17.99
76007;BMP280;64699;0.000;0.000;2023-03-20T00:46:39;100494.88;;;18.01
76007;BMP280;64699;0.000;0.000;2023-03-20T00:49:04;100493.63;;;18.02
76007;BMP280;64699;0.000;0.000;2023-03-20T00:51:30;100498.06;;;18.05
76007;BMP280;64699;0.000;0.000;2023-03-20T00:53:55;100496.81;;;18.06
76007;BMP280;64699;0.000;0.000;2023-03-20T00:58:52;100492.06;;;18.06
76007;BMP280;64699;0.000;0.000;2023-03-20T01:01:17;100492.78;;;18.07
76007;BMP280;64699;0.000;0.000;2023-03-20T01:03:42;100487.06;;;18.05
76007;BMP280;64699;0.000;0.000;2023-03-20T01:06:08;100491.06;;;18.04
76007;BMP280;64699;0.000;0.000;2023-03-20T01:08:34;100490.22;;;18.09
76007;BMP280;64699;0.000;0.000;2023-03-20T01:11:00;100488.03;;;18.07
76007;BMP280;64699;0.000;0.000;2023-03-20T01:13:26;100481.06;;;18.06
76007;BMP280;64699;0.000;0.000;2023-03-20T01:15:53;100475.00;;;18.08
76007;BMP280;64699;0.000;0.000;2023-03-20T01:18:19;100480.81;;;18.04
76007;BMP280;64699;0.000;0.000;2023-03-20T01:20:45;100483.06;;;18.06
76007;BMP280;64699;0.000;0.000;2023-03-20T01:23:11;100485.38;;;18.02
76007;BMP280;64699;0.000;0.000;2023-03-20T01:25:36;100473.31;;;18.05
76007;BMP280;64699;0.000;0.000;2023-03-20T01:28:02;100481.56;;;18.05
76007;BMP280;64699;0.000;0.000;2023-03-20T01:30:29;100474.59;;;18.04
76007;BMP280;64699;0.000;0.000;2023-03-20T01:32:55;100479.31;;;18.03
76007;BMP280;64699;0.000;0.000;2023-03-20T01:35:21;100473.09;;;18.03
76007;BMP280;64699;0.000;0.000;2023-03-20T01:37:47;100479.88;;;18.02
76007;BMP280;64699;0.000;0.000;2023-03-20T01:42:41;100484.94;;;17.98
76007;BMP280;64699;0.000;0.000;2023-03-20T01:45:16;100486.84;;;18.03
76007;BMP280;64699;0.000;0.000;2023-03-20T01:47:43;100482.06;;;18.03
76007;BMP280;64699;0.000;0.000;2023-03-20T01:50:19;100479.63;;;18.00
76007;BMP280;64699;0.000;0.000;2023-03-20T01:52:51;100478.38;;;18.01
76007;BMP280;64699;0.000;0.000;2023-03-20T01:55:17;100470.13;;;18.01
76007;BMP280;64699;0.000;0.000;2023-03-20T01:57:44;100467.91;;;17.99
76007;BMP280;64699;0.000;0.000;2023-03-20T02:00:10;100466.16;;;18.02
76007;BMP280;64699;0.000;0.000;2023-03-20T02:02:36;100468.88;;;18.02
76007;BMP280;64699;0.000;0.000;2023-03-20T02:05:05;100462.84;;;18.03
76007;BMP280;64699;0.000;0.000;2023-03-20T02:07:32;100464.84;;;18.03
76007;BMP280;64699;0.000;0.000;2023-03-20T02:09:58;100457.34;;;18.03
76007;BMP280;64699;0.000;0.000;2023-03-20T02:12:23;100462.09;;;18.03
76007;BMP280;64699;0.000;0.000;2023-03-20T02:14:49;100430.56;;;17.91
76007;BMP280;64699;0.000;0.000;2023-03-20T02:17:16;100455.06;;;18.07
76007;BMP280;64699;0.000;0.000;2023-03-20T02:22:53;100455.75;;;18.08
76007;BMP280;64699;0.000;0.000;2023-03-20T02:40:29;100439.09;;;18.19
76007;BMP280;64699;0.000;0.000;2023-03-20T02:45:30;100441.53;;;18.22
76007;BMP280;64699;0.000;0.000;2023-03-20T02:50:57;100432.97;;;18.26
76007;BMP280;64699;0.000;0.000;2023-03-20T02:56:01;100431.50;;;18.25
76007;BMP280;64699;0.000;0.000;2023-03-20T02:58:28;100420.50;;;18.25
76007;BMP280;64699;0.000;0.000;2023-03-20T03:01:02;100420.69;;;18.27
76007;BMP280;64699;0.000;0.000;2023-03-20T03:03:39;100435.16;;;18.27
76007;BMP280;64699;0.000;0.000;2023-03-20T03:06:17;100430.44;;;18.28
76007;BMP280;64699;0.000;0.000;2023-03-20T03:08:46;100430.66;;;18.30
76007;BMP280;64699;0.000;0.000;2023-03-20T03:11:13;100429.16;;;18.29
76007;BMP280;64699;0.000;0.000;2023-03-20T03:13:42;100426.41;;;18.29
76007;BMP280;64699;0.000;0.000;2023-03-20T03:16:11;100420.59;;;18.32
76007;BMP280;64699;0.000;0.000;2023-03-20T03:18:38;100420.16;;;18.28
76007;BMP280;64699;0.000;0.000;2023-03-20T03:21:05;100421.75;;;18.24
76007;BMP280;64699;0.000;0.000;2023-03-20T03:23:34;100418.78;;;18.22
76007;BMP280;64699;0.000;0.000;2023-03-20T03:25:59;100425.25;;;18.24
76007;BMP280;64699;0.000;0.000;2023-03-20T03:31:04;100426.50;;;18.23
76007;BMP280;64699;0.000;0.000;2023-03-20T03:33:31;100431.69;;;18.27
76007;BMP280;64699;0.000;0.000;2023-03-20T03:38:44;100418.78;;;18.22
76007;BMP280;64699;0.000;0.000;2023-03-20T03:46:33;100423.00;;;18.23
76007;BMP280;64699;0.000;0.000;2023-03-20T03:49:02;100421.53;;;18.22
76007;BMP280;64699;0.000;0.000;2023-03-20T03:51:29;100421.34;;;18.20
76007;BMP280;64699;0.000;0.000;2023-03-20T03:53:57;100413.09;;;18.20
76007;BMP280;64699;0.000;0.000;2023-03-20T03:56:24;100401.66;;;18.16
76007;BMP280;64699;0.000;0.000;2023-03-20T03:58:51;100410.44;;;18.14
76007;BMP280;64699;0.000;0.000;2023-03-20T04:01:17;100409.91;;;18.16
76007;BMP280;64699;0.000;0.000;2023-03-20T04:03:48;100405.84;;;18.17
76007;BMP280;64699;0.000;0.000;2023-03-20T04:06:14;100407.59;;;18.20
76007;BMP280;64699;0.000;0.000;2023-03-20T04:08:40;100404.63;;;18.18
76007;BMP280;64699;0.000;0.000;2023-03-20T04:11:06;100407.16;;;18.16
76007;BMP280;64699;0.000;0.000;2023-03-20T04:13:31;100398.69;;;18.14
76007;BMP280;64699;0.000;0.000;2023-03-20T04:15:56;100409.69;;;18.14
76007;BMP280;64699;0.000;0.000;2023-03-20T04:18:22;100406.94;;;18.14
76007;BMP280;64699;0.000;0.000;2023-03-20T04:20:47;100412.88;;;18.18
76007;BMP280;64699;0.000;0.000;2023-03-20T04:23:13;100417.41;;;18.15
76007;BMP280;64699;0.000;0.000;2023-03-20T04:25:38;100410.84;;;18.18
76007;BMP280;64699;0.000;0.000;2023-03-20T04:28:04;100403.66;;;18.15
76007;BMP280;64699;0.000;0.000;2023-03-20T04:30:29;100409.69;;;18.14
76007;BMP280;64699;0.000;0.000;2023-03-20T04:32:54;100410.19;;;18.12
76007;BMP280;64699;0.000;0.000;2023-03-20T04:35:20;100413.69;;;18.13
76007;BMP280;64699;0.000;0.000;2023-03-20T04:37:45;100415.69;;;18.12
76007;BMP280;64699;0.000;0.000;2023-03-20T04:40:10;100404.09;;;18.06
76007;BMP280;64699;0.000;0.000;2023-03-20T04:42:36;100407.75;;;18.09
76007;BMP280;64699;0.000;0.000;2023-03-20T04:45:01;100413.69;;;18.13
76007;BMP280;64699;0.000;0.000;2023-03-20T04:47:27;100412.66;;;18.16
76007;BMP280;64699;0.000;0.000;2023-03-20T04:49:52;100418.59;;;18.20
76007;BMP280;64699;0.000;0.000;2023-03-20T04:52:17;100421.13;;;18.18
76007;BMP280;64699;0.000;0.000;2023-03-20T04:54:42;100418.59;;;18.20
76007;BMP280;64699;0.000;0.000;2023-03-20T04:57:08;100418.59;;;18.20
76007;BMP280;64699;0.000;0.000;2023-03-20T04:59:33;100418.59;;;18.20
76007;BMP280;64699;0.000;0.000;2023-03-20T05:01:58;100423.66;;;18.16
76007;BMP280;64699;0.000;0.000;2023-03-20T05:04:24;100414.09;;;18.17
76007;BMP280;64699;0.000;0.000;2023-03-20T05:06:49;100418.91;;;18.16
76007;BMP280;64699;0.000;0.000;2023-03-20T05:09:15;100417.09;;;18.19
76007;BMP280;64699;0.000;0.000;2023-03-20T05:11:40;100418.59;;;18.20
76007;BMP280;64699;0.000;0.000;2023-03-20T05:14:06;100421.13;;;18.18
76007;BMP280;64699;0.000;0.000;2023-03-20T05:16:31;100413.91;;;18.15
76007;BMP280;64699;0.000;0.000;2023-03-20T05:18:56;100414.09;;;18.17
76007;BMP280;64699;0.000;0.000;2023-03-20T05:21:22;100425.09;;;18.17
76007;BMP280;64699;0.000;0.000;2023-03-20T05:23:47;100417.41;;;18.15
76007;BMP280;64699;0.000;0.000;2023-03-20T05:26:12;100418.59;;;18.20
76007;BMP280;64699;0.000;0.000;2023-03-20T05:28:37;100425.25;;;18.24
76007;BMP280;64699;0.000;0.000;2023-03-20T05:31:03;100428.94;;;18.27
76007;BMP280;64699;0.000;0.000;2023-03-20T05:33:28;100420.16;;;18.28
76007;BMP280;64699;0.000;0.000;2023-03-20T05:35:53;100417.66;;;18.30
76007;BMP280;64699;0.000;0.000;2023-03-20T05:38:19;100423.34;;;18.32
76007;BMP280;64699;0.000;0.000;2023-03-20T05:40:47;100425.91;;;18.30
76007;BMP280;64699;0.000;0.000;2023-03-20T05:43:12;100424.31;;;18.34
76007;BMP280;64699;0.000;0.000;2023-03-20T05:45:37;100425.78;;;18.35
76007;BMP280;64699;0.000;0.000;2023-03-20T05:48:03;100424.72;;;18.38
76007;BMP280;64699;0.000;0.000;2023-03-20T05:50:28;100421.97;;;18.38
76007;BMP280;64699;0.000;0.000;2023-03-20T05:52:53;100421.66;;;18.42
76007;BMP280;64699;0.000;0.000;2023-03-20T05:55:19;100422.91;;;18.41
76007;BMP280;64699;0.000;0.000;2023-03-20T05:57:44;100425.16;;;18.42
76007;BMP280;64699;0.000;0.000;2023-03-20T06:00:09;100422.59;;;18.44
76007;BMP280;64699;0.000;0.000;2023-03-20T06:02:35;100427.38;;;18.44
76007;BMP280;64699;0.000;0.000;2023-03-20T06:05:01;100425.56;;;18.46
76007;BMP280;64699;0.000;0.000;2023-03-20T06:07:26;100424.53;;;18.49
76007;BMP280;64699;0.000;0.000;2023-03-20T06:09:51;100431.72;;;18.52
76007;BMP280;64699;0.000;0.000;2023-03-20T06:12:17;100427.47;;;18.51
76007;BMP280;64699;0.000;0.000;2023-03-20T06:14:42;100428.75;;;18.50
76007;BMP280;64699;0.000;0.000;2023-03-20T06:17:08;100432.56;;;18.47
76007;BMP280;64699;0.000;0.000;2023-03-20T06:19:33;100428.25;;;18.52
76007;BMP280;64699;0.000;0.000;2023-03-20T06:21:58;100435.75;;;18.51
76007;BMP280;64699;0.000;0.000;2023-03-20T06:24:23;100440.28;;;18.49
76007;BMP280;64699;0.000;0.000;2023-03-20T06:26:49;100442.81;;;18.47
76007;BMP280;64699;0.000;0.000;2023-03-20T06:29:14;100436.34;;;18.44
76007;BMP280;64699;0.000;0.000;2023-03-20T06:31:39;100443.56;;;18.47
76007;BMP280;64699;0.000;0.000;2023-03-20T06:34:05;100437.84;;;18.45
76007;BMP280;64699;0.000;0.000;2023-03-20T06:36:30;100440.91;;;18.42
76007;BMP280;64699;0.000;0.000;2023-03-20T06:38:56;100442.41;;;18.43
76007;BMP280;64699;0.000;0.000;2023-03-20T06:41:21;100444.41;;;18.42
76007;BMP280;64699;0.000;0.000;2023-03-20T06:43:46;100442.41;;;18.43
76007;BMP280;64699;0.000;0.000;2023-03-20T06:46:12;100442.41;;;18.43
76007;BMP280;64699;0.000;0.000;2023-03-20T06:48:38;100440.41;;;18.43
76007;BMP280;64699;0.000;0.000;2023-03-20T06:51:03;100440.19;;;18.41
76007;BMP280;64699;0.000;0.000;2023-03-20T06:53:28;100439.09;;;18.44
76007;BMP280;64699;0.000;0.000;2023-03-20T06:55:54;100434.69;;;18.41
76007;BMP280;64699;0.000;0.000;2023-03-20T06:58:19;100436.16;;;18.42
76007;BMP280;64699;0.000;0.000;2023-03-20T07:00:44;100426.44;;;18.41
76007;BMP280;64699;0.000;0.000;2023-03-20T07:03:10;100426.19;;;18.39
76007;BMP280;64699;0.000;0.000;2023-03-20T07:05:36;100433.19;;;18.40
76007;BMP280;64699;0.000;0.000;2023-03-20T07:08:02;100434.69;;;18.41
76007;BMP280;64699;0.000;0.000;2023-03-20T07:10:27;100436.16;;;18.42
76007;BMP280;64699;0.000;0.000;2023-03-20T07:12:52;100429.19;;;18.41
76007;BMP280;64699;0.000;0.000;2023-03-20T07:15:18;100432.25;;;18.38
76007;BMP280;64699;0.000;0.000;2023-03-20T07:17:44;100428.19;;;18.39
76007;BMP280;64699;0.000;0.000;2023-03-20T07:20:10;100434.03;;;18.35
76007;BMP280;64699;0.000;0.000;2023-03-20T07:22:35;100424.50;;;18.36
76007;BMP280;64699;0.000;0.000;2023-03-20T07:25:01;100430.66;;;18.42
76007;BMP280;64699;0.000;0.000;2023-03-20T07:27:26;100432.16;;;18.43
76007;BMP280;64699;0.000;0.000;2023-03-20T07:29:51;100431.81;;;18.47
76007;BMP280;64699;0.000;0.000;2023-03-20T07:32:17;100428.09;;;18.44
76007;BMP280;64699;0.000;0.000;2023-03-20T07:34:42;100429.59;;;18.45
76007;BMP280;64699;0.000;0.000;2023-03-20T07:37:08;100429.59;;;18.45
76007;BMP280;64699;0.000;0.000;2023-03-20T07:39:34;100425.34;;;18.44
76007;BMP280;64699;0.000;0.000;2023-03-20T07:41:59;100422.81;;;18.46
76007;BMP280;64699;0.000;0.000;2023-03-20T07:44:25;100432.34;;;18.45
76007;BMP280;64699;0.000;0.000;2023-03-20T07:46:50;100429.06;;;18.47
76007;BMP280;64699;0.000;0.000;2023-03-20T07:49:16;100429.59;;;18.45
76007;BMP280;64699;0.000;0.000;2023-03-20T07:51:45;100428.84;;;18.45
76007;BMP280;64699;0.000;0.000;2023-03-20T07:54:10;100439.09;;;18.44
76007;BMP280;64699;0.000;0.000;2023-03-20T07:56:36;100437.84;;;18.45
76007;BMP280;64699;0.000;0.000;2023-03-20T07:59:01;100435.63;;;18.44
76007;BMP280;64699;0.000;0.000;2023-03-20T08:01:26;100437.84;;;18.45
76007;BMP280;64699;0.000;0.000;2023-03-20T08:03:52;100429.59;;;18.45
76007;BMP280;64699;0.000;0.000;2023-03-20T08:06:17;100435.09;;;18.45
76007;BMP280;64699;0.000;0.000;2023-03-20T08:08:42;100428.09;;;18.44
76007;BMP280;64699;0.000;0.000;2023-03-20T08:11:09;100425.16;;;18.42
76007;BMP280;64699;0.000;0.000;2023-03-20T08:13:34;100431.59;;;18.45
76007;BMP280;64699;0.000;0.000;2023-03-20T08:15:59;100425.16;;;18.42
76007;BMP280;64699;0.000;0.000;2023-03-20T08:18:25;100429.41;;;18.43
76007;BMP280;64699;0.000;0.000;2023-03-20T08:20:50;100429.91;;;18.42
76007;BMP280;64699;0.000;0.000;2023-03-20T08:23:16;100429.19;;;18.41
76007;BMP280;64699;0.000;0.000;2023-03-20T08:25:45;100421.66;;;18.42
76007;BMP280;64699;0.000;0.000;2023-03-20T08:28:11;100425.66;;;18.41
76007;BMP280;64699;0.000;0.000;2023-03-20T08:30:36;100418.50;;;18.38
76007;BMP280;64699;0.000;0.000;2023-03-20T08:33:01;100425.44;;;18.39
76007;BMP280;64699;0.000;0.000;2023-03-20T08:35:27;100423.25;;;18.37
76007;BMP280;64699;0.000;0.000;2023-03-20T08:37:52;100420.28;;;18.35
76007;BMP280;64699;0.000;0.000;2023-03-20T08:40:17;100414.00;;;18.35
76007;BMP280;64699;0.000;0.000;2023-03-20T08:42:43;100417.34;;;18.33
76007;BMP280;64699;0.000;0.000;2023-03-20T08:45:08;100414.00;;;18.35
76007;BMP280;64699;0.000;0.000;2023-03-20T08:47:33;100411.84;;;18.33
76007;BMP280;64699;0.000;0.000;2023-03-20T08:49:59;100419.84;;;18.31
76007;BMP280;64699;0.000;0.000;2023-03-20T08:52:24;100419.84;;;18.31
76007;BMP280;64699;0.000;0.000;2023-03-20T08:54:51;100399.66;;;18.16
76007;BMP280;64699;0.000;0.000;2023-03-20T08:57:16;100416.34;;;18.31
76007;BMP280;64699;0.000;0.000;2023-03-20T08:59:41;100421.88;;;18.31
76007;BMP280;64699;0.000;0.000;2023-03-20T09:02:08;100420.91;;;18.29
76007;BMP280;64699;0.000;0.000;2023-03-20T09:04:35;100416.16;;;18.29
76007;BMP280;64699;0.000;0.000;2023-03-20T09:07:00;100420.16;;;18.28
76007;BMP280;64699;0.000;0.000;2023-03-20T09:09:27;100420.41;;;18.30
76007;BMP280;64699;0.000;0.000;2023-03-20T09:11:54;100426.09;;;18.32
76007;BMP280;64699;0.000;0.000;2023-03-20T09:14:19;100429.34;;;18.30
76007;BMP280;64699;0.000;0.000;2023-03-20T09:16:45;100429.34;;;18.30
76007;BMP280;64699;0.000;0.000;2023-03-20T09:19:11;100424.16;;;18.27
76007;BMP280;64699;0.000;0.000;2023-03-20T09:21:36;100426.59;;;18.30
76007;BMP280;64699;0.000;0.000;2023-03-20T09:24:01;100422.19;;;18.28
76007;BMP280;64699;0.000;0.000;2023-03-20T09:26:27;100423.16;;;18.30
76007;BMP280;64699;0.000;0.000;2023-03-20T09:28:52;100418.34;;;18.30
76007;BMP280;64699;0.000;0.000;2023-03-20T09:31:17;100426.72;;;18.25
76007;BMP280;64699;0.000;0.000;2023-03-20T09:33:43;100417.75;;;18.25
76007;BMP280;64699;0.000;0.000;2023-03-20T09:36:08;100417.50;;;18.23
76007;BMP280;64699;0.000;0.000;2023-03-20T09:38:35;100419.00;;;18.24
76007;BMP280;64699;0.000;0.000;2023-03-20T09:41:02;100411.06;;;18.20
76007;BMP280;64699;0.000;0.000;2023-03-20T09:49:01;100414.56;;;18.21
76007;BMP280;64699;0.000;0.000;2023-03-20T09:53:56;100410.34;;;18.20
76007;BMP280;64699;0.000;0.000;2023-03-20T09:56:24;100412.75;;;18.23
76007;BMP280;64699;0.000;0.000;2023-03-20T09:58:53;100407.25;;;18.23
76007;BMP280;64699;0.000;0.000;2023-03-20T10:01:20;100405.78;;;18.22
76007;BMP280;64699;0.000;0.000;2023-03-20T10:03:57;100409.78;;;18.21
76007;BMP280;64699;0.000;0.000;2023-03-20T10:06:24;100403.09;;;18.17
76007;BMP280;64699;0.000;0.000;2023-03-20T10:08:49;100401.31;;;18.19
76007;BMP280;64699;0.000;0.000;2023-03-20T10:16:22;100397.84;;;18.19
76007;BMP280;64699;0.000;0.000;2023-03-20T10:22:16;100394.34;;;18.18
76007;BMP280;64699;0.000;0.000;2023-03-20T10:24:29;100393.63;;;18.18
76007;BMP280;64699;0.000;0.000;2023-03-20T10:26:57;100391.91;;;18.15
76007;BMP280;64699;0.000;0.000;2023-03-20T10:37:13;100388.44;;;18.14
76007;BMP280;64699;0.000;0.000;2023-03-20T10:42:27;100383.75;;;18.09
76007;BMP280;64699;0.000;0.000;2023-03-20T10:44:55;100382.00;;;18.12
76007;BMP280;64699;0.000;0.000;2023-03-20T10:47:23;100382.69;;;18.12
76007;BMP280;64699;0.000;0.000;2023-03-20T10:50:04;100381.00;;;18.09
76007;BMP280;64699;0.000;0.000;2023-03-20T10:52:32;100383.75;;;18.09
76007;BMP280;64699;0.000;0.000;2023-03-20T10:55:00;100373.28;;;18.08
76007;BMP280;64699;0.000;0.000;2023-03-20T10:57:28;100379.03;;;18.10
76007;BMP280;64699;0.000;0.000;2023-03-20T10:59:56;100379.03;;;18.10
76007;BMP280;64699;0.000;0.000;2023-03-20T11:02:23;100381.34;;;18.06
76007;BMP280;64699;0.000;0.000;2023-03-20T11:04:49;100373.28;;;18.08
76007;BMP280;64699;0.000;0.000;2023-03-20T11:12:40;100373.75;;;18.12
76007;BMP280;64699;0.000;0.000;2023-03-20T11:17:37;100371.50;;;18.10
76007;BMP280;64699;0.000;0.000;2023-03-20T11:20:03;100375.72;;;18.11
76007;BMP280;64699;0.000;0.000;2023-03-20T11:22:29;100381.78;;;18.10
76007;BMP280;64699;0.000;0.000;2023-03-20T11:24:59;100378.69;;;18.00
76007;BMP280;64699;0.000;0.000;2023-03-20T11:27:29;100371.38;;;18.03
76007;BMP280;64699;0.000;0.000;2023-03-20T11:29:55;100377.31;;;18.07
76007;BMP280;64699;0.000;0.000;2023-03-20T11:34:46;100369.81;;;18.07
76007;BMP280;64699;0.000;0.000;2023-03-20T11:37:20;100368.34;;;18.06
76007;BMP280;64699;0.000;0.000;2023-03-20T11:39:52;100366.31;;;18.07
76007;BMP280;64699;0.000;0.000;2023-03-20T11:42:21;100363.56;;;18.07
76007;BMP280;64699;0.000;0.000;2023-03-20T11:44:46;100363.34;;;18.05
76007;BMP280;64699;0.000;0.000;2023-03-20T11:47:21;100363.88;;;18.03
76007;BMP280;64699;0.000;0.000;2023-03-20T11:49:58;100359.66;;;18.02
76007;BMP280;64699;0.000;0.000;2023-03-20T11:52:25;100359.66;;;18.02
76007;BMP280;64699;0.000;0.000;2023-03-20T11:54:53;100353.44;;;18.02
76007;BMP280;64699;0.000;0.000;2023-03-20T11:57:27;100361.44;;;18.00
76007;BMP280;64699;0.000;0.000;2023-03-20T11:59:53;100366.44;;;18.01
76007;BMP280;64699;0.000;0.000;2023-03-20T12:02:20;100354.66;;;18.01
76007;BMP280;64699;0.000;0.000;2023-03-20T12:04:46;100374.66;;;18.01
76007;BMP280;64699;0.000;0.000;2023-03-20T12:07:15;100362.91;;;18.01
76007;BMP280;64699;0.000;0.000;2023-03-20T12:09:45;100360.50;;;17.97
76007;BMP280;64699;0.000;0.000;2023-03-20T12:12:13;100357.75;;;17.97
76007;BMP280;64699;0.000;0.000;2023-03-20T12:19:37;100359.75;;;17.97
76007;BMP280;64699;0.000;0.000;2023-03-20T12:22:23;100352.25;;;17.97
76007;BMP280;64699;0.000;0.000;2023-03-20T12:24:59;100361.03;;;17.96
76007;BMP280;64699;0.000;0.000;2023-03-20T12:29:57;100351.50;;;17.97
76007;BMP280;64699;0.000;0.000;2023-03-20T12:32:29;100350.75;;;17.96
76007;BMP280;64699;0.000;0.000;2023-03-20T12:34:58;100302.31;;;17.67
76007;BMP280;64699;0.000;0.000;2023-03-20T12:37:26;100336.78;;;17.94
76007;BMP280;64699;0.000;0.000;2023-03-20T12:39:52;100354.78;;;17.95
76007;BMP280;64699;0.000;0.000;2023-03-20T12:42:28;100345.78;;;17.95
76007;BMP280;64699;0.000;0.000;2023-03-20T12:45:10;100346.13;;;17.91
76007;BMP280;64699;0.000;0.000;2023-03-20T12:50:29;100344.63;;;17.90
76007;BMP280;64699;0.000;0.000;2023-03-20T13:03:30;100330.13;;;17.90
76007;BMP280;64699;0.000;0.000;2023-03-20T13:06:13;100338.19;;;17.88
76007;BMP280;64699;0.000;0.000;2023-03-20T13:16:19;100327.38;;;17.90
76007;BMP280;64699;0.000;0.000;2023-03-20T13:21:15;100327.91;;;17.88
76007;BMP280;64699;0.000;0.000;2023-03-20T13:23:43;100328.66;;;17.89
76007;BMP280;64699;0.000;0.000;2023-03-20T13:38:45;100318.38;;;17.89
76007;BMP280;64699;0.000;0.000;2023-03-20T13:41:11;100327.19;;;17.88
76007;BMP280;64699;0.000;0.000;2023-03-20T13:43:42;100316.19;;;17.88
76007;BMP280;64699;0.000;0.000;2023-03-20T13:46:11;100319.97;;;17.85
76007;BMP280;64699;0.000;0.000;2023-03-20T13:48:42;100324.22;;;17.86
76007;BMP280;64699;0.000;0.000;2023-03-20T14:01:44;100317.22;;;17.85
76007;BMP280;64699;0.000;0.000;2023-03-20T14:04:14;100319.06;;;17.82
76007;BMP280;64699;0.000;0.000;2023-03-20T14:06:44;100317.22;;;17.85
76007;BMP280;64699;0.000;0.000;2023-03-20T14:11:48;100307.31;;;17.82
76007;BMP280;64699;0.000;0.000;2023-03-20T14:14:16;100316.81;;;17.81
76007;BMP280;64699;0.000;0.000;2023-03-20T14:16:43;100316.06;;;17.80
76007;BMP280;64699;0.000;0.000;2023-03-20T14:19:19;100322.81;;;17.79
76007;BMP280;64699;0.000;0.000;2023-03-20T14:21:48;100317.31;;;17.79
76007;BMP280;64699;0.000;0.000;2023-03-20T14:24:14;100320.81;;;17.80
76007;BMP280;64699;0.000;0.000;2023-03-20T14:26:43;100319.38;;;17.79
76007;BMP280;64699;0.000;0.000;2023-03-20T14:31:37;100320.06;;;17.79
76007;BMP280;64699;0.000;0.000;2023-03-20T14:34:07;100321.38;;;17.78
76007;BMP280;64699;0.000;0.000;2023-03-20T14:52:29;100316.91;;;17.75
76007;BMP280;64699;0.000;0.000;2023-03-20T14:54:59;100314.69;;;17.74
76007;BMP280;64699;0.000;0.000;2023-03-20T14:57:37;100326.19;;;17.72
76007;BMP280;64699;0.000;0.000;2023-03-20T15:00:03;100325.69;;;17.74
76007;BMP280;64699;0.000;0.000;2023-03-20T15:02:30;100321.47;;;17.73
76007;BMP280;64699;0.000;0.000;2023-03-20T15:04:58;100329.91;;;17.75
76007;BMP280;64699;0.000;0.000;2023-03-20T15:07:30;100320.38;;;17.76
76007;BMP280;64699;0.000;0.000;2023-03-20T15:09:56;100328.22;;;17.72
76007;BMP280;64699;0.000;0.000;2023-03-20T15:12:24;100325.25;;;17.70
76007;BMP280;64699;0.000;0.000;2023-03-20T15:14:56;100325.47;;;17.72
76007;BMP280;64699;0.000;0.000;2023-03-20T15:17:24;100318.50;;;17.71
76007;BMP280;64699;0.000;0.000;2023-03-20T15:19:57;100328.22;;;17.72
76007;BMP280;64699;0.000;0.000;2023-03-20T15:22:22;100326.19;;;17.72
76007;BMP280;64699;0.000;0.000;2023-03-20T15:24:52;100326.19;;;17.72
76007;BMP280;64699;0.000;0.000;2023-03-20T15:27:17;100328.22;;;17.72
76007;BMP280;64699;0.000;0.000;2023-03-20T15:29:47;100324.00;;;17.71
76007;BMP280;64699;0.000;0.000;2023-03-20T15:32:12;100322.50;;;17.70
76007;BMP280;64699;0.000;0.000;2023-03-20T15:34:38;100327.06;;;17.67
76007;BMP280;64699;0.000;0.000;2023-03-20T15:37:04;100326.28;;;17.67
76007;BMP280;64699;0.000;0.000;2023-03-20T15:39:40;100323.56;;;17.67
76007;BMP280;64699;0.000;0.000;2023-03-20T15:42:08;100329.03;;;17.67
76007;BMP280;64699;0.000;0.000;2023-03-20T15:44:36;100330.31;;;17.66
76007;BMP280;64699;0.000;0.000;2023-03-20T15:49:28;100335.28;;;17.67
76007;BMP280;64699;0.000;0.000;2023-03-20T15:51:55;100342.03;;;17.66
76007;BMP280;64699;0.000;0.000;2023-03-20T15:54:21;100342.59;;;17.65
76007;BMP280;64699;0.000;0.000;2023-03-20T15:56:49;100339.72;;;17.70
76007;BMP280;64699;0.000;0.000;2023-03-20T15:59:15;100346.28;;;17.67
76007;BMP280;64699;0.000;0.000;2023-03-20T16:01:42;100348.50;;;17.69
76007;BMP280;64699;0.000;0.000;2023-03-20T16:04:08;100346.59;;;17.64
76007;BMP280;64699;0.000;0.000;2023-03-20T16:06:36;100341.41;;;17.60
76007;BMP280;64699;0.000;0.000;2023-03-20T16:09:11;100342.88;;;17.61
76007;BMP280;64699;0.000;0.000;2023-03-20T16:11:39;100347.88;;;17.63
76007;BMP280;64699;0.000;0.000;2023-03-20T16:14:05;100350.59;;;17.63
76007;BMP280;64699;0.000;0.000;2023-03-20T16:16:31;100350.34;;;17.61
76007;BMP280;64699;0.000;0.000;2023-03-20T16:19:01;100364.09;;;17.61
76007;BMP280;64699;0.000;0.000;2023-03-20T16:21:28;100360.41;;;17.58
76007;BMP280;64699;0.000;0.000;2023-03-20T16:23:55;100352.91;;;17.59
76007;BMP280;64699;0.000;0.000;2023-03-20T16:26:22;100355.16;;;17.60
76007;BMP280;64699;0.000;0.000;2023-03-20T16:28:48;100349.88;;;17.75
76007;BMP280;64699;0.000;0.000;2023-03-20T16:31:15;100355.59;;;17.77
76007;BMP280;64699;0.000;0.000;2023-03-20T16:33:41;100358.84;;;17.76
76007;BMP280;64699;0.000;0.000;2023-03-20T16:36:07;100351.69;;;17.73
76007;BMP280;64699;0.000;0.000;2023-03-20T16:38:33;100346.28;;;17.67
76007;BMP280;64699;0.000;0.000;2023-03-20T16:43:48;100342.88;;;17.61
76007;BMP280;64699;0.000;0.000;2023-03-20T16:46:16;100339.19;;;17.59
76007;BMP280;64699;0.000;0.000;2023-03-20T16:48:43;100343.41;;;17.60
76007;BMP280;64699;0.000;0.000;2023-03-20T16:54:12;100334.19;;;17.57